METAR AND TAF INFORMATION
METAR FOR ULAA
ADDS - METARS form results

(0257 UTC 26 April 2019)
Data provider http://aviationweather.gov/metar/data/
 
METAR text: ULAA 260230Z 00000MPS CAVOK M04/M05 Q1026 R08/CLRD68 NOSIG RMK QFE768/1025
Conditions at: ULAA (ARHANGELSK , RU) observed 0230 UTC 26 April 2019
Temperature: -4.0°C (25°F)
Dewpoint: -5.0°C (23°F) [RH = 93%]
Pressure (altimeter): 30.30 inches Hg (1026.0 mb)
Winds: calm
Visibility: 6 or more miles (10+ km)
Ceiling: ceiling and visibility are OK
Clouds: unknown
Weather: no significant weather observed at this time

METAR text: ULAA 260200Z 00000MPS CAVOK M04/M05 Q1026 R08/CLRD68 NOSIG RMK QFE769/1025
Conditions at: ULAA (ARHANGELSK , RU) observed 0200 UTC 26 April 2019
Temperature: -4.0°C (25°F)
Dewpoint: -5.0°C (23°F) [RH = 93%]
Pressure (altimeter): 30.30 inches Hg (1026.0 mb)
Winds: calm
Visibility: 6 or more miles (10+ km)
Ceiling: ceiling and visibility are OK
Clouds: unknown
Weather: no significant weather observed at this time

Forecast for: ULAA (ARHANGELSK , RU)
Text: TAF ULAA 260200Z 2603/2703 VRB01MPS 9999 SCT015
Forecast period: 0300 UTC 26 April 2019 to 0300 UTC 27 April 2019
Forecast type: FROM: standard forecast or significant change
Winds: variable direction winds at 2 MPH (2 knots; 1.0 m/s)
Visibility: 6 or more miles 10+ km)
Ceiling: at least 12,000 feet AGL
Clouds: scattered clouds at 1500 feet AGL
Weather: no significant weather forecast for this period
Text: TEMPO 2603/2605 30003MPS 2100 BR FEW003
Forecast period: 0300 to 0500 UTC 26 April 2019
Forecast type: TEMPORARY: The following changes expected for less than half the time period
Winds: from the WNW (300 degrees) at 7 MPH (6 knots; 3.1 m/s)
Visibility: 1.30 miles (2.09 km)
Ceiling: at least 12,000 feet AGL
Clouds: few clouds at 300 feet AGL
Weather: BR  (mist)
Text: TEMPO 2605/2612 16003MPS
Forecast period: 0500 to 1200 UTC 26 April 2019
Forecast type: TEMPORARY: The following changes expected for less than half the time period
Winds: from the SSE (160 degrees) at 7 MPH (6 knots; 3.1 m/s)
Visibility: missing
Ceiling: unknown
Clouds: missing
Weather: no significant weather forecast for this period
Text: TEMPO 2612/2618 21003MPS -SNRA BKN011
Forecast period: 1200 to 1800 UTC 26 April 2019
Forecast type: TEMPORARY: The following changes expected for less than half the time period
Winds: from the SSW (210 degrees) at 7 MPH (6 knots; 3.1 m/s)
Visibility: missing
Ceiling: 1100 feet AGL
Clouds: broken clouds at 1100 feet AGL
Weather: -SN -RA  (light snow, light rain)

 AIRPORT MAP

 RUNWAY INFORMATION

 AIRPORT FREQUENCIES
Type APP Name ARKHANGELS Frequency 122 MHZ
Type ATIS Name ARKHANGELS Frequency 126.675 MHZ
Type TWR Name ARKHANGELS Frequency 121.8 MHZ

 AIRPORT NEAR NAVIGATION AIDS
Type NDB Name Arkhangelsk Frequency 690 KHZ
Type NDB Name Arkhangelsk Frequency 690 KHZ



2018 Air Astana Virtual Airline